Terminal Aerodrome Forecast
Issued by NWS

Home | Current Version | Previous Version | Text Only | Print | Product List | Glossary On
Versions: 1 2 3 4 5 6 7 8 9 10 11 12 13 14 15
661
FTPA31 PHFO 070541
TAFHTO
TAF
PHTO 070541Z 0706/0806 24005KT P6SM VCSH SCT025 BKN040
     FM072000 13008KT P6SM VCSH SCT025 BKN040 BKN200
      TEMPO 0723/0803 4SM SHRA BR BKN025
     FM080400 VRB03KT P6SM VCSH SCT025 BKN040 BKN150=

USA.gov is the U.S. government's official web portal to all federal, state and local government web resources and services.